createdAt,value
2022-11-05T00:03:00.100Z,93.56
2022-11-05T00:08:23.888Z,93.58
2022-11-05T00:14:02.649Z,93.58
2022-11-05T00:19:10.339Z,93.66
2022-11-05T00:24:32.275Z,93.70
2022-11-05T00:29:35.699Z,93.70
2022-11-05T00:34:39.156Z,93.70
2022-11-05T00:39:46.322Z,93.77
2022-11-05T00:45:05.504Z,93.92
2022-11-05T00:50:23.102Z,94.07
2022-11-05T00:55:35.890Z,94.10
2022-11-05T01:00:45.294Z,94.12
2022-11-05T01:05:52.577Z,94.17
2022-11-05T01:10:57.591Z,94.22
2022-11-05T01:16:06.574Z,94.24
2022-11-05T01:21:11.711Z,94.30
2022-11-05T01:26:15.305Z,94.37
2022-11-05T01:31:18.675Z,94.42
2022-11-05T01:36:24.503Z,94.49
2022-11-05T01:41:27.892Z,94.55
2022-11-05T01:46:35.119Z,94.52
2022-11-05T01:51:39.149Z,94.44
2022-11-05T01:56:46.632Z,94.32
2022-11-05T02:01:50.945Z,93.94
2022-11-05T02:06:54.861Z,93.74
2022-11-05T02:11:58.850Z,93.68
2022-11-05T02:17:41.292Z,93.68
2022-11-05T02:23:33.090Z,93.82
2022-11-05T02:29:12.685Z,93.89
2022-11-05T02:40:38.544Z,93.89
2022-11-05T02:45:58.713Z,93.85
2022-11-05T02:51:06.089Z,93.88
2022-11-05T02:56:16.546Z,93.90
2022-11-05T03:01:20.079Z,93.92
2022-11-05T03:06:49.820Z,93.92
2022-11-05T03:12:30.905Z,93.93
2022-11-05T03:18:00.943Z,93.85
2022-11-05T03:23:27.536Z,93.88
2022-11-05T03:28:35.665Z,93.94
2022-11-05T03:33:39.971Z,93.98
2022-11-05T03:38:47.883Z,94.03
2022-11-05T03:43:55.047Z,94.08
2022-11-05T03:48:59.712Z,94.11
2022-11-05T03:54:04.887Z,94.15
2022-11-05T03:59:09.664Z,94.23
2022-11-05T04:04:13.016Z,94.25
2022-11-05T04:09:35.114Z,94.33
2022-11-05T04:14:39.787Z,94.39
2022-11-05T04:20:04.224Z,94.43
2022-11-05T04:25:10.506Z,94.48
2022-11-05T04:30:21.988Z,94.51
2022-11-05T04:35:26.447Z,94.54
2022-11-05T04:40:30.018Z,94.60
2022-11-05T04:45:35.002Z,94.66
2022-11-05T04:50:38.554Z,94.77
2022-11-05T04:55:41.864Z,94.88
2022-11-05T05:00:45.653Z,94.88
2022-11-05T05:05:51.840Z,94.91
2022-11-05T05:11:04.907Z,94.95
2022-11-05T05:16:10.422Z,94.99
2022-11-05T05:21:33.932Z,95.03
2022-11-05T05:26:39.401Z,95.06
2022-11-05T05:31:42.891Z,95.08
2022-11-05T05:36:46.266Z,95.09
2022-11-05T05:41:51.681Z,95.10
2022-11-05T05:46:57.504Z,95.11
2022-11-05T05:52:00.779Z,95.10
2022-11-05T05:57:04.357Z,95.09
2022-11-05T06:02:07.870Z,95.12
2022-11-05T06:07:11.296Z,95.13
2022-11-05T06:12:15.110Z,95.14
2022-11-05T06:17:18.596Z,95.14
2022-11-05T06:22:22.363Z,95.13
2022-11-05T06:27:29.926Z,95.10
2022-11-05T06:32:38.995Z,95.03
2022-11-05T06:37:42.683Z,95.02
2022-11-05T06:42:46.036Z,94.95
2022-11-05T06:47:55.594Z,94.77
2022-11-05T06:53:02.159Z,94.70
2022-11-05T06:58:06.040Z,94.62
2022-11-05T07:03:13.251Z,94.62
2022-11-05T07:08:17.827Z,94.49
2022-11-05T07:13:27.719Z,94.42
2022-11-05T07:18:31.515Z,94.35
2022-11-05T07:23:37.948Z,94.28
2022-11-05T07:28:41.272Z,94.05
2022-11-05T07:33:44.578Z,93.79
2022-11-05T07:38:49.967Z,93.86
2022-11-05T07:43:55.199Z,93.76
2022-11-05T07:49:03.049Z,93.92
2022-11-05T07:54:07.200Z,93.91
2022-11-05T07:59:13.818Z,93.86
2022-11-05T08:04:21.172Z,93.38
2022-11-05T08:09:28.303Z,92.68
2022-11-05T08:14:32.449Z,92.66
2022-11-05T08:19:37.584Z,92.15
2022-11-05T08:24:53.315Z,91.93
2022-11-05T08:30:11.528Z,91.21
2022-11-05T08:35:15.729Z,90.07
2022-11-05T08:40:19.319Z,89.88
2022-11-05T08:45:25.242Z,89.60
2022-11-05T08:50:33.371Z,89.23
2022-11-05T08:55:42.499Z,89.43
2022-11-05T09:01:01.825Z,89.60
2022-11-05T09:06:11.668Z,89.40
2022-11-05T09:11:18.391Z,88.75
2022-11-05T09:16:25.800Z,88.01
2022-11-05T09:21:29.837Z,87.39
2022-11-05T09:26:33.244Z,87.97
2022-11-05T09:31:59.939Z,87.70
2022-11-05T09:37:06.189Z,87.87
2022-11-05T09:42:10.458Z,86.71
2022-11-05T09:47:24.453Z,86.34
2022-11-05T09:52:36.729Z,85.09
2022-11-05T09:57:56.119Z,84.86
2022-11-05T10:03:10.633Z,84.27
2022-11-05T10:08:34.390Z,84.60
2022-11-05T10:13:53.522Z,83.88
2022-11-05T10:19:32.737Z,83.33
2022-11-05T10:24:43.103Z,83.20
2022-11-05T10:29:49.359Z,83.52
2022-11-05T10:34:54.592Z,83.28
2022-11-05T10:40:00.814Z,83.71
2022-11-05T10:45:16.573Z,83.72
2022-11-05T10:50:30.489Z,82.62
2022-11-05T10:56:07.935Z,82.13
2022-11-05T11:01:17.936Z,80.97
2022-11-05T11:06:29.381Z,82.66
2022-11-05T11:11:50.109Z,81.62
2022-11-05T11:17:19.903Z,81.07
2022-11-05T11:22:31.260Z,79.66
2022-11-05T11:27:35.096Z,79.29
2022-11-05T11:32:40.164Z,79.72
2022-11-05T11:37:47.811Z,78.45
2022-11-05T11:42:54.256Z,79.65
2022-11-05T11:47:58.423Z,79.60
2022-11-05T11:53:27.772Z,78.92
2022-11-05T11:58:46.312Z,79.85
2022-11-05T12:03:54.666Z,80.15
2022-11-05T12:09:26.758Z,79.95
2022-11-05T12:14:34.350Z,80.01
2022-11-05T12:19:47.984Z,79.78
2022-11-05T12:24:55.892Z,78.84
2022-11-05T12:30:02.609Z,77.55
2022-11-05T12:35:32.004Z,76.31
2022-11-05T12:40:43.960Z,77.49
2022-11-05T12:45:56.834Z,77.54
2022-11-05T12:51:34.941Z,76.65
2022-11-05T12:56:48.269Z,76.11
2022-11-05T13:02:01.378Z,76.59
2022-11-05T13:07:08.551Z,73.66
2022-11-05T13:12:20.515Z,72.56
2022-11-05T13:17:27.149Z,72.88
2022-11-05T13:22:37.944Z,73.14
2022-11-05T13:28:09.073Z,73.91
2022-11-05T13:33:17.475Z,74.54
2022-11-05T13:38:44.136Z,74.60
2022-11-05T13:44:24.491Z,74.37
2022-11-05T13:49:34.381Z,74.60
2022-11-05T13:55:09.008Z,74.66
2022-11-05T14:00:21.435Z,75.53
2022-11-05T14:05:36.930Z,76.01
2022-11-05T14:10:46.946Z,76.07
2022-11-05T14:16:15.691Z,76.47
2022-11-05T14:21:32.110Z,76.86
2022-11-05T14:26:38.101Z,77.06
2022-11-05T14:32:11.790Z,77.37
2022-11-05T14:37:26.898Z,77.71
2022-11-05T14:42:32.088Z,78.24
2022-11-05T14:47:42.270Z,78.50
2022-11-05T14:52:58.569Z,78.67
2022-11-05T14:58:23.911Z,78.98
2022-11-05T15:03:33.716Z,79.35
2022-11-05T15:08:52.850Z,79.53
2022-11-05T15:14:06.315Z,79.74
2022-11-05T15:19:32.073Z,79.86
2022-11-05T15:24:40.132Z,79.89
2022-11-05T15:29:48.805Z,80.07
2022-11-05T15:34:58.544Z,80.36
2022-11-05T15:40:02.425Z,80.48
2022-11-05T15:45:20.225Z,81.31
2022-11-05T15:50:23.671Z,81.27
2022-11-05T15:55:27.215Z,81.62
2022-11-05T16:00:35.528Z,82.03
2022-11-05T16:05:43.777Z,81.85
2022-11-05T16:10:53.424Z,81.88
2022-11-05T16:16:06.480Z,82.13
2022-11-05T16:21:12.633Z,82.19
2022-11-05T16:32:08.801Z,82.45
2022-11-05T16:37:16.881Z,82.52
2022-11-05T16:42:24.130Z,82.63
2022-11-05T16:47:27.508Z,82.83
2022-11-05T16:52:30.885Z,82.91
2022-11-05T16:57:34.263Z,83.04
2022-11-05T17:02:37.697Z,83.12
2022-11-05T17:07:44.095Z,83.31
2022-11-05T17:12:50.813Z,83.67
2022-11-05T17:17:59.201Z,83.78
2022-11-05T17:23:05.266Z,83.95
2022-11-05T17:28:12.147Z,84.01
2022-11-05T17:33:18.721Z,84.05
2022-11-05T17:38:24.003Z,84.11
2022-11-05T17:43:30.702Z,84.17
2022-11-05T17:48:35.887Z,84.22
2022-11-05T17:53:46.003Z,84.14
2022-11-05T17:58:50.305Z,84.21
2022-11-05T18:04:03.800Z,84.44
2022-11-05T18:09:30.806Z,84.41
2022-11-05T18:14:47.928Z,84.53
2022-11-05T18:19:51.459Z,84.73
2022-11-05T18:24:56.678Z,84.90
2022-11-05T18:30:12.244Z,84.88
2022-11-05T18:35:21.968Z,84.96
2022-11-05T18:40:30.505Z,85.14
2022-11-05T18:46:06.451Z,85.17
2022-11-05T18:51:19.669Z,85.52
2022-11-05T18:56:45.140Z,85.50
2022-11-05T19:02:25.673Z,85.52
2022-11-05T19:07:40.725Z,85.71
2022-11-05T19:12:45.111Z,86.61
2022-11-05T19:18:04.638Z,87.45
2022-11-05T19:23:10.946Z,87.19
2022-11-05T19:28:19.903Z,87.15
2022-11-05T19:33:35.242Z,86.97
2022-11-05T19:38:59.070Z,86.81
2022-11-05T19:44:02.987Z,86.83
2022-11-05T19:49:16.616Z,86.90
2022-11-05T19:54:22.945Z,87.09
2022-11-05T19:59:57.339Z,87.07
2022-11-05T20:05:16.649Z,87.10
2022-11-05T20:10:34.415Z,87.29
2022-11-05T20:16:06.001Z,87.95
2022-11-05T20:21:12.815Z,88.01
2022-11-05T20:26:19.661Z,88.06
2022-11-05T20:31:27.201Z,88.01
2022-11-05T20:36:39.744Z,87.98
2022-11-05T20:41:47.989Z,88.00
2022-11-05T20:46:51.366Z,87.90
2022-11-05T20:51:55.567Z,87.58
2022-11-05T21:02:19.305Z,87.94
2022-11-05T21:07:41.711Z,88.01
2022-11-05T21:13:13.292Z,88.11
2022-11-05T21:18:38.818Z,88.18
2022-11-05T21:23:45.424Z,88.38
2022-11-05T21:29:00.715Z,88.55
2022-11-05T21:34:05.733Z,88.63
2022-11-05T21:39:13.385Z,88.65
2022-11-05T21:44:32.315Z,88.33
2022-11-05T21:49:42.147Z,88.09
2022-11-05T21:55:16.444Z,88.37
2022-11-05T22:06:03.581Z,88.61
2022-11-05T22:16:59.143Z,88.86
2022-11-05T22:28:14.257Z,88.43
2022-11-05T22:33:21.037Z,88.33
2022-11-05T22:44:17.981Z,88.37
2022-11-05T22:49:33.595Z,88.78
2022-11-05T22:54:52.868Z,88.77
2022-11-05T23:00:26.847Z,88.68
2022-11-05T23:05:55.274Z,88.64
2022-11-05T23:11:38.768Z,88.70
2022-11-05T23:17:01.843Z,88.74
2022-11-05T23:22:53.651Z,88.84
2022-11-05T23:27:57.493Z,88.96
2022-11-05T23:33:01.285Z,89.03
2022-11-05T23:38:23.261Z,89.07
2022-11-05T23:43:57.756Z,88.96
2022-11-05T23:49:01.730Z,88.95
2022-11-05T23:54:05.792Z,88.94
2022-11-05T23:59:12.443Z,88.92
